Logo AVAMET
Benvolgut visitant, si us plau, ingressa Recuperar contrasenya

Oriola Platja Flamenca

Dades diàries. Acumulats / Últims 30 dies disponibles

Data Temperatura (°C) Humitat rel. (%) Pressió rel. (hPa) Vent (km/h) Precipitació
Mínima Mitjana Màxima Amplitud
tèrmica
Mínima Mitjana Màxima Mínima Mitjana Màxima Predom. Mitjana Ràfega
màxima
Total
(mm)
Índex-n
Mínima Mitjana Màxima Mínima Mitjana Màxima n
0 a 1
P0 max
mm 5'
Dades mensuals acumulades fins l'últim dia disponible
01/2020 5,8 8,4 10,9 12,0 12,7 15,7 19,8 14,0 36 76 92 1.010 1.026 1.034   5,4 67,6 46,8
Dades anuals acumulades fins l'últim dia disponible
2020 5,8 8,4 10,9 12,0 12,7 15,7 19,8 14,0 36 76 92 1.010 1.026 1.034   5,4 67,6 46,8
Últims 30 dies disponibles
24-01-2020 10,9     13,3     15,4 4,5 78 83 89 1.020 1.021 1.022 SSE 8,3 32,2 0,0
23-01-2020 8,5     12,1     15,8 7,3 78 85 90 1.019 1.020 1.022 SSE 5,1 19,3 0,0
22-01-2020 9,7     13,4     15,9 6,2 74 80 88 1.016 1.017 1.019 S 5,9 29,0 0,0
21-01-2020 8,9     11,2     13,9 5,0 73 85 92 1.010 1.013 1.017 S 9,3 48,3 16,6 0,68 3,20
20-01-2020 7,9     9,7     12,7 4,8 74 84 91 1.012 1.015 1.017 SE 13,1 67,6 15,6 0,66 3,10
19-01-2020 7,4     11,1     13,9 6,5 60 74 87 1.014 1.015 1.021 ESE 11,9 64,4 13,2 0,29 1,70
18-01-2020 10,7     12,8     15,7 5,0 56 71 86 1.021 1.028 1.033 NW 3,1 19,3 0,0
17-01-2020 8,6     13,6     19,8 11,2 37 61 72 1.029 1.030 1.033 E 2,9 19,3 0,0
16-01-2020 9,6     13,2     16,4 6,8 45 65 73 1.027 1.028 1.030 SO 3,8 17,7 0,0
15-01-2020 7,4     12,3     18,0 10,6 43 62 76 1.024 1.026 1.028 SSO 3,3 22,5 0,0
14-01-2020 5,8     11,8     16,4 10,6 43 70 84 1.022 1.023 1.025 OSO 4,3 24,1 0,0
13-01-2020 6,9     11,5     16,1 9,2 57 76 84 1.024 1.027 1.031 OSO 4,7 27,4 0,0
12-01-2020 7,0     11,9     17,4 10,4 36 68 86 1.029 1.030 1.031 SSE 5,7 25,7 0,0
11-01-2020 10,2     12,7     16,3 6,1 52 70 84 1.027 1.030 1.031 SSE 7,3 27,4 0,6
10-01-2020 10,1     12,3     15,4 5,3 64 77 89 1.023 1.025 1.028 SE 4,9 30,6 0,6
09-01-2020 10,7     12,9     15,9 5,2 63 78 87 1.026 1.028 1.031 SSO 4,0 14,5 0,0
08-01-2020 7,0     11,4     14,8 7,8 54 82 91 1.028 1.030 1.031 SW 3,1 32,2 0,2
07-01-2020 7,2     11,4     14,7 7,5 69 81 88 1.030 1.031 1.033 SO 4,9 19,3 0,0
06-01-2020 6,4     11,0     15,1 8,7 60 79 86 1.028 1.029 1.031 S 3,6 16,1 0,0
05-01-2020 7,5     11,0     15,3 7,8 66 79 86 1.028 1.030 1.032 S 2,6 14,5 0,0
04-01-2020 9,2     11,9     15,8 6,6 65 78 90 1.032 1.033 1.034 ESE 6,3 22,5 0,0
03-01-2020 6,6     11,1     16,9 10,3 65 81 89 1.030 1.031 1.033 SSO 3,2 20,9 0,0
02-01-2020 9,4     12,3     14,5 5,1 69 78 85 1.031 1.032 1.034 E 3,4 14,5 0,0
01-01-2020 8,2     11,0     13,9 5,7 77 85 90 1.031 1.032 1.034 S 3,9 14,5 0,0
31-12-2019 9,3     12,0     15,8 6,5 69 82 88 1.032 1.033 1.035 S 3,7 16,1 0,0
30-12-2019 9,1     12,2     15,4 6,3 64 81 91 1.031 1.033 1.034 ESE 4,8 16,1 0,0
29-12-2019 10,2     12,4     16,1 5,9 69 83 92 1.031 1.032 1.034 ESE 5,1 17,7 0,2
28-12-2019 8,9     12,3     15,3 6,4 77 88 93 1.029 1.030 1.032 ESE 4,0 17,7 0,0
27-12-2019 11,9     14,3     17,7 5,8 70 80 89 1.028 1.029 1.031 ESE 4,3 19,3 0,0
26-12-2019 11,2     15,5     24,4 13,2 36 72 89 1.022 1.025 1.030 ESE 3,4 24,1 0,0
Últims 13 mesos disponibles
12/2019 8,9 11,9 16,0 14,8 13,7 18,4 24,4 15,5 46 71 88 1.005 1.019 1.033 ESE 6,5 67,6 56,6
11/2019 8,7 13,1 20,9 16,5 15,8 20,5 28,6 19,9 44 57 87 1.001 1.012 1.019 ESE 7,3 51,5 11,6
09/2019 16,7 21,3 23,7 24,2 22,9 27,4 30,7 14,0 NW 7,6 61,2 61,8
Tots els anys disponibles
Temperatura (°C)
Humitat relativa (%)
Velocitat del vent i ràfega màxima (km/h)
Direcció del vent (°)
Pressió (hPa)
Precipitació (mm)
Nota sobre les dades: s'avisa a l'usuari de la provisionalitat i no oficialitat d'aquestes dades
Logo AVAMET blanc
Web allotjada a Sollutia
Llicència de Creative CommonsLa web d'AVAMET i els seus continguts estan subjectes a una llicència de
Reconeixement - No Comercial - Compartir igual
Últimes estacions: Xixona - Els Ameradors (Soci), Agres - El Tossal (Soci), Xàbia - Bevenguts (MeteoXàbia), Llíria (Aj. Soci/Inforatge), Orihuela - Lo Capitán, Cox & Guardamar del Segura - horta (Meteorihuela), l'Alcúdia - Carriona & el Real de Gandia (Inforatge), Benicàssim - les Vil·les (Soci),  l'Alfàs del Pi - l'Albir (Soci), - - -